createdAt,value
2022-12-23T00:00:25.836Z,63.71
2022-12-23T00:01:25.923Z,63.81
2022-12-23T00:02:25.872Z,63.81
2022-12-23T00:03:25.970Z,63.81
2022-12-23T00:04:25.935Z,63.81
2022-12-23T00:05:25.795Z,63.81
2022-12-23T00:06:25.769Z,63.81
2022-12-23T00:07:25.774Z,63.81
2022-12-23T00:08:25.746Z,63.81
2022-12-23T00:09:25.756Z,63.71
2022-12-23T00:10:25.746Z,63.71
2022-12-23T00:11:25.744Z,63.81
2022-12-23T00:12:25.710Z,63.81
2022-12-23T00:13:25.715Z,63.81
2022-12-23T00:14:25.685Z,63.81
2022-12-23T00:15:25.733Z,63.81
2022-12-23T00:16:25.753Z,63.81
2022-12-23T00:17:25.669Z,63.81
2022-12-23T00:18:25.648Z,63.71
2022-12-23T00:19:25.660Z,63.81
2022-12-23T00:20:25.634Z,63.81
2022-12-23T00:21:25.630Z,63.92
2022-12-23T00:22:25.703Z,63.81
2022-12-23T00:23:25.604Z,63.81
2022-12-23T00:24:25.582Z,63.81
2022-12-23T00:25:25.592Z,63.81
2022-12-23T00:26:25.594Z,63.81
2022-12-23T00:27:25.595Z,63.81
2022-12-23T00:28:25.544Z,63.81
2022-12-23T00:29:25.563Z,63.81
2022-12-23T00:30:25.520Z,63.81
2022-12-23T00:31:25.574Z,63.81
2022-12-23T00:32:25.501Z,63.81
2022-12-23T00:33:25.510Z,63.81
2022-12-23T00:34:25.476Z,63.81
2022-12-23T00:35:25.507Z,64.01
2022-12-23T00:36:25.587Z,63.92
2022-12-23T00:37:25.465Z,63.92
2022-12-23T00:38:25.436Z,63.81
2022-12-23T00:39:25.445Z,63.71
2022-12-23T00:40:25.560Z,63.71
2022-12-23T00:41:25.426Z,63.71
2022-12-23T00:42:25.395Z,63.81
2022-12-23T00:43:25.407Z,63.71
2022-12-23T00:44:25.372Z,63.81
2022-12-23T00:45:25.555Z,63.81
2022-12-23T00:46:25.499Z,63.81
2022-12-23T00:47:25.361Z,63.81
2022-12-23T00:48:25.340Z,63.71
2022-12-23T00:49:25.340Z,63.71
2022-12-23T00:50:25.312Z,63.81
2022-12-23T00:51:25.318Z,63.81
2022-12-23T00:52:25.311Z,63.81
2022-12-23T00:53:25.299Z,63.81
2022-12-23T00:54:25.287Z,63.81
2022-12-23T00:55:25.274Z,63.81
2022-12-23T00:56:25.244Z,63.81
2022-12-23T00:57:25.254Z,63.81
2022-12-23T00:58:25.260Z,63.81
2022-12-23T00:59:25.231Z,63.81
2022-12-23T01:00:25.213Z,63.81
2022-12-23T01:01:25.277Z,63.81
2022-12-23T01:02:25.332Z,63.81
2022-12-23T01:03:25.258Z,63.81
2022-12-23T01:04:25.176Z,63.81
2022-12-23T01:05:25.169Z,63.81
2022-12-23T01:06:25.141Z,63.92
2022-12-23T01:07:25.166Z,63.81
2022-12-23T01:08:25.117Z,63.81
2022-12-23T01:09:25.129Z,63.81
2022-12-23T01:10:25.107Z,63.81
2022-12-23T01:11:25.111Z,63.81
2022-12-23T01:12:25.075Z,63.71
2022-12-23T01:13:25.106Z,63.71
2022-12-23T01:14:25.055Z,63.81
2022-12-23T01:15:25.053Z,63.81
2022-12-23T01:16:25.093Z,63.81
2022-12-23T01:17:25.096Z,63.81
2022-12-23T01:18:25.041Z,63.81
2022-12-23T01:19:25.039Z,63.81
2022-12-23T01:20:24.992Z,63.81
2022-12-23T01:21:25.008Z,63.81
2022-12-23T01:22:24.972Z,63.81
2022-12-23T01:23:24.984Z,63.71
2022-12-23T01:24:24.978Z,63.81
2022-12-23T01:25:24.978Z,63.81
2022-12-23T01:26:24.935Z,63.81
2022-12-23T01:27:24.932Z,63.81
2022-12-23T01:28:24.914Z,63.81
2022-12-23T01:29:24.919Z,63.81
2022-12-23T01:30:24.929Z,63.81
2022-12-23T01:31:25.008Z,63.81
2022-12-23T01:32:24.881Z,63.81
2022-12-23T01:33:24.873Z,63.81
2022-12-23T01:34:24.849Z,63.92
2022-12-23T01:35:24.860Z,63.92
2022-12-23T01:36:24.854Z,63.92
2022-12-23T01:37:24.826Z,63.92
2022-12-23T01:38:24.812Z,63.92
2022-12-23T01:39:24.805Z,63.92
2022-12-23T01:40:24.791Z,63.92
2022-12-23T01:41:24.798Z,63.92
2022-12-23T01:42:24.790Z,63.92
2022-12-23T01:43:24.793Z,63.92
2022-12-23T01:44:24.743Z,63.92
2022-12-23T01:45:24.752Z,64.01
2022-12-23T01:46:24.822Z,64.51
2022-12-23T01:47:24.725Z,64.62
2022-12-23T01:48:24.717Z,64.51
2022-12-23T01:49:24.725Z,64.51
2022-12-23T01:50:24.739Z,66.02
2022-12-23T01:51:24.704Z,66.32
2022-12-23T01:52:24.672Z,66.39
2022-12-23T01:53:24.679Z,66.42
2022-12-23T01:54:24.637Z,66.28
2022-12-23T01:55:24.653Z,66.28
2022-12-23T01:56:24.654Z,66.09
2022-12-23T01:57:24.619Z,66.09
2022-12-23T01:58:24.592Z,65.99
2022-12-23T01:59:24.600Z,65.99
2022-12-23T02:00:24.570Z,65.99
2022-12-23T02:01:24.704Z,66.09
2022-12-23T02:02:24.785Z,66.09
2022-12-23T02:03:24.686Z,66.09
2022-12-23T02:04:24.529Z,65.99
2022-12-23T02:05:24.541Z,65.99
2022-12-23T02:06:24.511Z,65.99
2022-12-23T02:07:24.519Z,66.09
2022-12-23T02:08:24.526Z,65.99
2022-12-23T02:09:24.494Z,66.09
2022-12-23T02:10:24.465Z,66.09
2022-12-23T02:11:24.468Z,66.19
2022-12-23T02:12:24.462Z,66.09
2022-12-23T02:13:24.452Z,66.09
2022-12-23T02:14:24.455Z,66.19
2022-12-23T02:15:24.432Z,66.19
2022-12-23T02:16:24.418Z,66.19
2022-12-23T02:17:24.411Z,66.19
2022-12-23T02:18:24.385Z,66.19
2022-12-23T02:19:24.388Z,66.19
2022-12-23T02:20:24.389Z,66.19
2022-12-23T02:21:24.389Z,66.09
2022-12-23T02:22:24.347Z,66.19
2022-12-23T02:23:24.346Z,65.99
2022-12-23T02:24:24.352Z,65.69
2022-12-23T02:25:24.325Z,65.59
2022-12-23T02:26:24.339Z,65.59
2022-12-23T02:27:24.300Z,65.59
2022-12-23T02:28:24.292Z,65.69
2022-12-23T02:29:24.273Z,65.59
2022-12-23T02:30:24.269Z,65.48
2022-12-23T02:31:24.266Z,66.39
2022-12-23T02:32:24.285Z,66.09
2022-12-23T02:33:24.237Z,65.99
2022-12-23T02:34:24.236Z,66.09
2022-12-23T02:35:24.207Z,66.09
2022-12-23T02:36:24.232Z,65.99
2022-12-23T02:37:24.194Z,66.09
2022-12-23T02:38:24.185Z,66.09
2022-12-23T02:39:24.161Z,66.19
2022-12-23T02:40:24.165Z,66.09
2022-12-23T02:41:24.141Z,66.19
2022-12-23T02:42:24.172Z,66.09
2022-12-23T02:43:24.122Z,66.19
2022-12-23T02:44:24.127Z,66.09
2022-12-23T02:45:24.098Z,65.48
2022-12-23T02:46:24.295Z,65.78
2022-12-23T02:47:24.079Z,65.59
2022-12-23T02:48:24.085Z,64.59
2022-12-23T02:49:24.069Z,64.18
2022-12-23T02:50:24.073Z,64.09
2022-12-23T02:51:24.041Z,63.98
2022-12-23T02:52:24.062Z,63.98
2022-12-23T02:53:24.019Z,63.98
2022-12-23T02:54:24.019Z,63.98
2022-12-23T02:55:23.994Z,63.98
2022-12-23T02:56:24.004Z,63.98
2022-12-23T02:57:24.012Z,63.98
2022-12-23T02:58:23.977Z,64.09
2022-12-23T02:59:23.950Z,64.09
2022-12-23T03:00:23.957Z,64.09
2022-12-23T03:01:23.966Z,64.09
2022-12-23T03:02:24.173Z,64.09
2022-12-23T03:03:24.116Z,64.09
2022-12-23T03:04:23.927Z,64.09
2022-12-23T03:05:23.897Z,64.09
2022-12-23T03:06:23.937Z,64.09
2022-12-23T03:07:23.878Z,64.09
2022-12-23T03:08:23.880Z,64.09
2022-12-23T03:09:23.867Z,64.09
2022-12-23T03:10:23.869Z,64.18
2022-12-23T03:11:23.830Z,64.09
2022-12-23T03:12:23.869Z,64.09
2022-12-23T03:13:23.812Z,64.18
2022-12-23T03:14:23.826Z,64.18
2022-12-23T03:15:23.815Z,64.18
2022-12-23T03:16:23.895Z,64.18
2022-12-23T03:17:23.804Z,64.18
2022-12-23T03:18:23.804Z,64.18
2022-12-23T03:19:23.745Z,64.18
2022-12-23T03:20:23.818Z,64.18
2022-12-23T03:21:23.723Z,64.18
2022-12-23T03:22:23.725Z,64.18
2022-12-23T03:23:23.707Z,64.28
2022-12-23T03:24:23.723Z,64.28
2022-12-23T03:25:23.686Z,64.28
2022-12-23T03:26:23.715Z,64.28
2022-12-23T03:27:23.680Z,64.28
2022-12-23T03:28:23.676Z,64.28
2022-12-23T03:29:23.679Z,64.28
2022-12-23T03:30:23.645Z,64.28
2022-12-23T03:31:23.695Z,64.28
2022-12-23T03:32:23.635Z,64.28
2022-12-23T03:33:23.635Z,64.28
2022-12-23T03:34:23.623Z,64.28
2022-12-23T03:35:23.574Z,64.28
2022-12-23T03:36:23.584Z,64.28
2022-12-23T03:37:23.560Z,64.39
2022-12-23T03:38:23.562Z,64.39
2022-12-23T03:39:23.585Z,64.39
2022-12-23T03:40:23.547Z,64.39
2022-12-23T03:41:23.514Z,64.39
2022-12-23T03:42:23.517Z,64.39
2022-12-23T03:43:23.504Z,64.28
2022-12-23T03:44:23.497Z,64.39
2022-12-23T03:45:40.810Z,64.39
2022-12-23T03:46:23.564Z,64.39
2022-12-23T03:47:23.469Z,64.39
2022-12-23T03:48:23.466Z,64.39
2022-12-23T03:49:23.440Z,64.39
2022-12-23T03:50:23.439Z,64.39
2022-12-23T03:51:23.430Z,64.48
2022-12-23T03:52:23.409Z,64.48
2022-12-23T03:53:23.388Z,66.09
2022-12-23T03:54:23.392Z,66.28
2022-12-23T03:55:23.370Z,66.49
2022-12-23T03:56:23.382Z,66.19
2022-12-23T03:57:23.367Z,66.19
2022-12-23T03:58:23.357Z,65.09
2022-12-23T03:59:23.322Z,64.78
2022-12-23T04:00:23.337Z,64.69
2022-12-23T04:01:23.325Z,64.59
2022-12-23T04:02:23.569Z,64.59
2022-12-23T04:03:23.436Z,64.59
2022-12-23T04:04:23.382Z,64.59
2022-12-23T04:05:23.264Z,64.59
2022-12-23T04:06:23.274Z,64.59
2022-12-23T04:07:23.245Z,64.59
2022-12-23T04:08:23.255Z,64.59
2022-12-23T04:09:23.247Z,64.69
2022-12-23T04:10:23.228Z,64.69
2022-12-23T04:11:23.206Z,64.69
2022-12-23T04:12:23.204Z,64.69
2022-12-23T04:13:23.183Z,64.69
2022-12-23T04:14:23.193Z,64.69
2022-12-23T04:15:23.184Z,64.69
2022-12-23T04:16:23.240Z,64.69
2022-12-23T04:17:23.140Z,64.69
2022-12-23T04:18:23.139Z,64.69
2022-12-23T04:19:23.116Z,64.69
2022-12-23T04:20:23.127Z,65.89
2022-12-23T04:21:23.109Z,65.99
2022-12-23T04:22:23.111Z,65.39
2022-12-23T04:23:23.079Z,64.89
2022-12-23T04:24:23.076Z,64.69
2022-12-23T04:25:23.053Z,64.59
2022-12-23T04:26:23.083Z,64.48
2022-12-23T04:27:23.031Z,64.48
2022-12-23T04:28:23.052Z,65.69
2022-12-23T04:29:23.015Z,65.99
2022-12-23T04:30:25.569Z,66.09
2022-12-23T04:31:23.064Z,66.09
2022-12-23T04:32:23.035Z,64.89
2022-12-23T04:33:22.969Z,64.59
2022-12-23T04:34:22.969Z,64.48
2022-12-23T04:35:22.949Z,64.48
2022-12-23T04:36:22.970Z,64.48
2022-12-23T04:37:22.940Z,64.59
2022-12-23T04:38:22.983Z,64.48
2022-12-23T04:39:22.907Z,64.48
2022-12-23T04:40:22.909Z,64.48
2022-12-23T04:41:22.886Z,65.39
2022-12-23T04:42:22.885Z,65.89
2022-12-23T04:43:22.888Z,65.99
2022-12-23T04:44:22.916Z,65.99
2022-12-23T04:45:22.844Z,65.89
2022-12-23T04:46:22.947Z,65.99
2022-12-23T04:47:22.821Z,65.99
2022-12-23T04:48:22.841Z,65.99
2022-12-23T04:49:22.829Z,65.99
2022-12-23T04:50:22.813Z,65.59
2022-12-23T04:51:22.782Z,64.69
2022-12-23T04:52:22.784Z,64.59
2022-12-23T04:53:22.772Z,64.48
2022-12-23T04:54:22.766Z,64.39
2022-12-23T04:55:22.771Z,64.48
2022-12-23T04:56:22.747Z,64.48
2022-12-23T04:57:22.722Z,64.59
2022-12-23T04:58:22.737Z,64.59
2022-12-23T04:59:22.697Z,64.48
2022-12-23T05:00:22.726Z,64.48
2022-12-23T05:01:22.786Z,64.48
2022-12-23T05:02:22.757Z,64.48
2022-12-23T05:03:22.747Z,64.48
2022-12-23T05:04:22.698Z,64.59
2022-12-23T05:05:22.640Z,64.48
2022-12-23T05:06:22.676Z,64.59
2022-12-23T05:07:22.612Z,64.59
2022-12-23T05:08:22.628Z,64.59
2022-12-23T05:09:22.596Z,64.59
2022-12-23T05:10:22.604Z,64.59
2022-12-23T05:11:22.588Z,64.59
2022-12-23T05:12:22.610Z,64.59
2022-12-23T05:13:22.583Z,64.59
2022-12-23T05:14:22.558Z,64.59
2022-12-23T05:15:22.547Z,64.59
2022-12-23T05:16:22.615Z,64.59
2022-12-23T05:17:22.557Z,64.59
2022-12-23T05:18:22.526Z,64.59
2022-12-23T05:19:22.490Z,64.59
2022-12-23T05:20:22.500Z,64.69
2022-12-23T05:21:22.468Z,64.69
2022-12-23T05:22:22.480Z,64.69
2022-12-23T05:23:22.488Z,64.69
2022-12-23T05:24:22.475Z,64.69
2022-12-23T05:25:22.458Z,64.78
2022-12-23T05:26:22.437Z,64.78
2022-12-23T05:27:22.406Z,64.78
2022-12-23T05:28:22.416Z,64.78
2022-12-23T05:29:22.388Z,64.78
2022-12-23T05:30:22.414Z,64.78
2022-12-23T05:31:22.501Z,64.78
2022-12-23T05:32:22.379Z,64.78
2022-12-23T05:33:22.369Z,64.78
2022-12-23T05:34:22.355Z,66.49
2022-12-23T05:35:22.329Z,67.29
2022-12-23T05:36:22.324Z,67.39
2022-12-23T05:37:22.331Z,67.29
2022-12-23T05:38:22.317Z,67.29
2022-12-23T05:39:22.287Z,66.89
2022-12-23T05:40:27.134Z,66.59
2022-12-23T05:41:22.268Z,66.89
2022-12-23T05:42:22.268Z,66.69
2022-12-23T05:43:22.262Z,66.59
2022-12-23T05:44:22.259Z,65.39
2022-12-23T05:45:22.222Z,65.19
2022-12-23T05:46:26.578Z,64.98
2022-12-23T05:47:22.193Z,64.69
2022-12-23T05:48:22.221Z,64.78
2022-12-23T05:49:22.178Z,64.69
2022-12-23T05:50:22.213Z,64.59
2022-12-23T05:51:22.174Z,64.59
2022-12-23T05:52:22.158Z,64.59
2022-12-23T05:53:22.132Z,64.69
2022-12-23T05:54:22.158Z,64.78
2022-12-23T05:55:22.137Z,64.78
2022-12-23T05:56:22.116Z,64.78
2022-12-23T05:57:22.113Z,64.78
2022-12-23T05:58:22.091Z,64.78
2022-12-23T05:59:24.405Z,64.78
2022-12-23T06:00:22.087Z,64.78
2022-12-23T06:01:22.046Z,64.78
2022-12-23T06:02:22.501Z,64.78
2022-12-23T06:03:22.217Z,64.78
2022-12-23T06:04:22.061Z,64.78
2022-12-23T06:05:22.031Z,64.78
2022-12-23T06:06:22.021Z,64.78
2022-12-23T06:07:21.989Z,64.78
2022-12-23T06:08:21.997Z,64.78
2022-12-23T06:09:21.964Z,64.78
2022-12-23T06:10:21.971Z,64.78
2022-12-23T06:11:21.973Z,64.78
2022-12-23T06:12:21.956Z,64.78
2022-12-23T06:13:21.927Z,64.78
2022-12-23T06:14:26.972Z,64.78
2022-12-23T06:15:21.911Z,64.69
2022-12-23T06:16:22.090Z,64.78
2022-12-23T06:17:21.882Z,64.78
2022-12-23T06:18:21.888Z,64.69
2022-12-23T06:19:21.878Z,64.78
2022-12-23T06:20:21.877Z,64.69
2022-12-23T06:21:21.846Z,64.78
2022-12-23T06:22:21.874Z,64.69
2022-12-23T06:23:21.836Z,64.78
2022-12-23T06:24:21.847Z,64.69
2022-12-23T06:25:21.808Z,64.78
2022-12-23T06:26:21.803Z,65.48
2022-12-23T06:27:21.780Z,66.59
2022-12-23T06:28:21.789Z,66.69
2022-12-23T06:29:21.780Z,66.69
2022-12-23T06:30:21.758Z,66.78
2022-12-23T06:31:21.771Z,66.69
2022-12-23T06:32:21.777Z,66.69
2022-12-23T06:33:21.718Z,66.69
2022-12-23T06:34:21.728Z,66.78
2022-12-23T06:35:21.696Z,66.78
2022-12-23T06:36:21.694Z,66.69
2022-12-23T06:37:21.689Z,66.69
2022-12-23T06:38:21.655Z,66.49
2022-12-23T06:39:21.609Z,65.69
2022-12-23T06:40:21.590Z,65.19
2022-12-23T06:41:21.594Z,65.09
2022-12-23T06:42:21.566Z,64.98
2022-12-23T06:43:21.570Z,65.19
2022-12-23T06:44:21.580Z,65.28
2022-12-23T06:45:21.551Z,65.19
2022-12-23T06:46:21.575Z,65.19
2022-12-23T06:47:21.549Z,65.28
2022-12-23T06:48:21.514Z,65.48
2022-12-23T06:49:21.535Z,65.48
2022-12-23T06:50:21.486Z,65.48
2022-12-23T06:51:21.485Z,65.59
2022-12-23T06:52:21.480Z,65.59
2022-12-23T06:53:21.478Z,65.59
2022-12-23T06:54:21.441Z,65.59
2022-12-23T06:55:21.493Z,65.48
2022-12-23T06:56:21.421Z,65.39
2022-12-23T06:57:21.427Z,65.39
2022-12-23T06:58:21.409Z,65.48
2022-12-23T06:59:21.430Z,65.48
2022-12-23T07:00:21.400Z,65.69
2022-12-23T07:01:21.473Z,65.69
2022-12-23T07:02:21.506Z,65.78
2022-12-23T07:03:21.456Z,65.78
2022-12-23T07:04:21.391Z,65.78
2022-12-23T07:05:21.416Z,66.19
2022-12-23T07:06:21.398Z,66.49
2022-12-23T07:07:21.403Z,66.78
2022-12-23T07:08:21.356Z,66.78
2022-12-23T07:09:21.346Z,66.99
2022-12-23T07:10:21.342Z,66.99
2022-12-23T07:11:21.367Z,66.99
2022-12-23T07:12:21.342Z,66.99
2022-12-23T07:13:21.312Z,67.09
2022-12-23T07:14:21.285Z,67.09
2022-12-23T07:15:21.288Z,67.09
2022-12-23T07:16:21.347Z,66.99
2022-12-23T07:17:21.296Z,66.99
2022-12-23T07:18:21.269Z,67.09
2022-12-23T07:19:21.263Z,67.09
2022-12-23T07:20:21.223Z,67.09
2022-12-23T07:21:28.687Z,67.09
2022-12-23T07:22:21.208Z,66.99
2022-12-23T07:23:21.209Z,66.89
2022-12-23T07:24:21.216Z,67.09
2022-12-23T07:25:21.207Z,66.99
2022-12-23T07:26:21.171Z,66.89
2022-12-23T07:27:21.173Z,66.89
2022-12-23T07:28:21.161Z,66.89
2022-12-23T07:29:21.187Z,66.69
2022-12-23T07:30:21.122Z,66.78
2022-12-23T07:31:21.239Z,66.78
2022-12-23T07:32:21.102Z,66.89
2022-12-23T07:33:21.097Z,66.89
2022-12-23T07:34:21.074Z,66.89
2022-12-23T07:35:21.115Z,66.89
2022-12-23T07:36:21.057Z,66.89
2022-12-23T07:37:21.066Z,66.89
2022-12-23T07:38:21.063Z,66.78
2022-12-23T07:39:21.047Z,66.78
2022-12-23T07:40:21.039Z,66.78
2022-12-23T07:41:21.045Z,66.69
2022-12-23T07:43:20.999Z,66.69
2022-12-23T07:44:20.969Z,66.78
2022-12-23T07:45:20.969Z,66.78
2022-12-23T07:46:21.071Z,66.78
2022-12-23T07:47:20.921Z,66.78
2022-12-23T07:48:20.897Z,66.69
2022-12-23T07:49:20.883Z,66.69
2022-12-23T07:50:20.862Z,66.78
2022-12-23T07:51:20.865Z,66.69
2022-12-23T07:52:20.878Z,66.78
2022-12-23T07:53:20.854Z,66.78
2022-12-23T07:54:20.812Z,66.69
2022-12-23T07:55:20.814Z,66.69
2022-12-23T07:56:20.800Z,66.78
2022-12-23T07:57:20.826Z,66.72
2022-12-23T07:58:20.766Z,66.69
2022-12-23T07:59:20.783Z,66.72
2022-12-23T08:00:20.752Z,66.72
2022-12-23T08:01:20.803Z,66.72
2022-12-23T08:02:20.980Z,66.69
2022-12-23T08:03:20.996Z,66.69
2022-12-23T08:04:20.810Z,66.69
2022-12-23T08:05:20.849Z,66.72
2022-12-23T08:06:20.748Z,66.62
2022-12-23T08:07:20.744Z,66.82
2022-12-23T08:08:20.666Z,66.82
2022-12-23T08:09:20.755Z,66.82
2022-12-23T08:10:20.719Z,66.82
2022-12-23T08:11:20.729Z,66.82
2022-12-23T08:12:20.678Z,66.82
2022-12-23T08:13:20.713Z,66.82
2022-12-23T08:14:20.658Z,66.72
2022-12-23T08:15:20.665Z,66.82
2022-12-23T08:16:20.660Z,66.82
2022-12-23T08:17:20.631Z,66.82
2022-12-23T08:18:20.562Z,66.82
2022-12-23T08:19:20.565Z,66.82
2022-12-23T08:20:20.540Z,66.72
2022-12-23T08:21:20.563Z,66.72
2022-12-23T08:22:20.521Z,66.72
2022-12-23T08:23:24.664Z,66.72
2022-12-23T08:24:20.500Z,66.72
2022-12-23T08:25:20.528Z,66.72
2022-12-23T08:26:20.520Z,66.72
2022-12-23T08:27:20.494Z,66.62
2022-12-23T08:28:20.467Z,66.72
2022-12-23T08:29:20.484Z,66.72
2022-12-23T08:30:20.482Z,66.72
2022-12-23T08:31:20.542Z,66.82
2022-12-23T08:32:20.444Z,66.72
2022-12-23T08:33:20.438Z,66.72
2022-12-23T08:34:20.468Z,66.72
2022-12-23T08:35:20.464Z,66.72
2022-12-23T08:36:23.194Z,66.62
2022-12-23T08:37:20.466Z,66.62
2022-12-23T08:38:20.417Z,66.62
2022-12-23T08:39:20.415Z,66.52
2022-12-23T08:40:20.390Z,66.52
2022-12-23T08:41:20.425Z,66.72
2022-12-23T08:42:20.374Z,66.72
2022-12-23T08:43:20.376Z,66.62
2022-12-23T08:44:20.296Z,66.62
2022-12-23T08:45:20.305Z,66.62
2022-12-23T08:46:20.350Z,66.62
2022-12-23T08:47:20.367Z,66.62
2022-12-23T08:48:20.346Z,66.62
2022-12-23T08:49:20.355Z,66.72
2022-12-23T08:50:20.319Z,66.62
2022-12-23T08:51:20.318Z,66.62
2022-12-23T08:52:20.265Z,66.62
2022-12-23T08:53:20.266Z,66.62
2022-12-23T08:54:20.378Z,66.72
2022-12-23T08:55:20.290Z,66.72
2022-12-23T08:56:20.269Z,66.62
2022-12-23T08:57:20.384Z,66.62
2022-12-23T08:58:20.227Z,66.62
2022-12-23T08:59:20.264Z,66.52
2022-12-23T09:00:20.181Z,66.62
2022-12-23T09:01:20.230Z,66.62
2022-12-23T09:02:20.483Z,66.62
2022-12-23T09:03:20.266Z,66.72
2022-12-23T09:04:20.109Z,66.78
2022-12-23T09:05:20.098Z,66.82
2022-12-23T09:06:26.535Z,66.78
2022-12-23T09:07:20.102Z,66.72
2022-12-23T09:08:20.054Z,66.49
2022-12-23T09:09:20.118Z,66.22
2022-12-23T09:10:20.076Z,65.82
2022-12-23T09:11:20.041Z,65.39
2022-12-23T09:12:20.018Z,65.28
2022-12-23T09:13:27.806Z,65.19
2022-12-23T09:14:19.988Z,65.19
2022-12-23T09:15:19.989Z,65.09
2022-12-23T09:16:19.991Z,65.09
2022-12-23T09:17:20.021Z,64.98
2022-12-23T09:18:19.995Z,64.98
2022-12-23T09:19:20.041Z,65.01
2022-12-23T09:20:19.974Z,65.09
2022-12-23T09:21:19.996Z,65.09
2022-12-23T09:22:19.954Z,65.19
2022-12-23T09:23:19.959Z,65.22
2022-12-23T09:24:19.933Z,65.19
2022-12-23T09:25:19.914Z,65.19
2022-12-23T09:26:19.865Z,65.19
2022-12-23T09:27:19.856Z,65.19
2022-12-23T09:28:19.831Z,65.28
2022-12-23T09:29:19.857Z,65.28
2022-12-23T09:30:19.818Z,65.22
2022-12-23T09:31:19.987Z,65.19
2022-12-23T09:32:19.789Z,65.22
2022-12-23T09:33:19.827Z,65.19
2022-12-23T09:34:19.775Z,65.19
2022-12-23T09:35:19.781Z,65.19
2022-12-23T09:36:19.769Z,65.19
2022-12-23T09:37:19.778Z,65.19
2022-12-23T09:38:19.732Z,65.19
2022-12-23T09:39:19.735Z,65.19
2022-12-23T09:40:19.766Z,65.28
2022-12-23T09:41:19.785Z,65.28
2022-12-23T09:42:19.780Z,65.28
2022-12-23T09:43:19.727Z,65.28
2022-12-23T09:44:19.698Z,65.28
2022-12-23T09:45:19.672Z,65.28
2022-12-23T09:46:19.680Z,65.28
2022-12-23T09:47:19.660Z,65.12
2022-12-23T09:48:19.628Z,64.89
2022-12-23T09:49:19.945Z,64.59
2022-12-23T09:50:19.616Z,64.39
2022-12-23T09:51:19.659Z,63.98
2022-12-23T09:52:19.619Z,63.81
2022-12-23T09:53:19.702Z,63.51
2022-12-23T09:54:19.623Z,63.31
2022-12-23T09:55:19.629Z,62.61
2022-12-23T09:56:19.604Z,62.21
2022-12-23T09:57:19.621Z,61.71
2022-12-23T09:58:19.609Z,61.71
2022-12-23T09:59:19.582Z,61.51
2022-12-23T10:00:19.722Z,61.31
2022-12-23T10:01:19.637Z,61.11
2022-12-23T10:02:19.690Z,61.01
2022-12-23T10:03:19.760Z,61.01
2022-12-23T10:04:19.647Z,61.41
2022-12-23T10:05:19.545Z,61.81
2022-12-23T10:06:19.534Z,62.21
2022-12-23T10:07:19.540Z,62.51
2022-12-23T10:08:19.541Z,62.81
2022-12-23T10:09:19.613Z,63.01
2022-12-23T10:10:19.515Z,63.11
2022-12-23T10:11:19.464Z,63.21
2022-12-23T10:12:25.338Z,63.31
2022-12-23T10:13:19.471Z,63.21
2022-12-23T10:14:19.428Z,63.11
2022-12-23T10:15:19.442Z,63.11
2022-12-23T10:16:19.504Z,63.11
2022-12-23T10:17:19.420Z,63.01
2022-12-23T10:18:19.404Z,62.92
2022-12-23T10:19:19.401Z,62.92
2022-12-23T10:20:19.526Z,62.81
2022-12-23T10:21:19.484Z,62.92
2022-12-23T10:22:19.335Z,63.01
2022-12-23T10:23:19.340Z,63.01
2022-12-23T10:24:19.327Z,63.01
2022-12-23T10:25:19.360Z,63.01
2022-12-23T10:26:19.315Z,62.92
2022-12-23T10:27:19.322Z,62.92
2022-12-23T10:28:19.298Z,62.92
2022-12-23T10:29:19.914Z,62.92
2022-12-23T10:30:51.488Z,62.81
2022-12-23T10:32:19.289Z,62.81
2022-12-23T10:33:19.240Z,62.81
2022-12-23T10:34:19.238Z,62.81
2022-12-23T10:35:19.222Z,62.81
2022-12-23T10:36:19.236Z,62.81
2022-12-23T10:37:19.196Z,62.81
2022-12-23T10:38:19.180Z,62.81
2022-12-23T10:39:19.188Z,62.81
2022-12-23T10:40:19.184Z,62.81
2022-12-23T10:41:19.144Z,62.81
2022-12-23T10:42:19.124Z,62.81
2022-12-23T10:43:19.095Z,62.81
2022-12-23T10:44:19.064Z,62.81
2022-12-23T10:45:19.058Z,62.81
2022-12-23T10:46:19.122Z,62.92
2022-12-23T10:47:19.052Z,62.92
2022-12-23T10:48:19.101Z,62.81
2022-12-23T10:49:19.065Z,62.92
2022-12-23T10:50:19.061Z,62.92
2022-12-23T10:51:19.110Z,62.92
2022-12-23T10:52:19.037Z,62.92
2022-12-23T10:53:19.051Z,62.92
2022-12-23T10:54:19.009Z,63.01
2022-12-23T10:55:19.045Z,62.92
2022-12-23T10:56:19.008Z,63.01
2022-12-23T10:57:19.020Z,63.01
2022-12-23T10:58:19.025Z,63.01
2022-12-23T10:59:18.942Z,63.01
2022-12-23T11:00:18.946Z,63.01
2022-12-23T11:01:26.539Z,63.01
2022-12-23T11:02:19.021Z,63.01
2022-12-23T11:03:19.031Z,63.01
2022-12-23T11:04:18.895Z,63.01
2022-12-23T11:05:18.902Z,63.21
2022-12-23T11:06:18.853Z,63.21
2022-12-23T11:07:43.298Z,63.21
2022-12-23T11:08:18.834Z,63.21
2022-12-23T11:09:18.791Z,63.21
2022-12-23T11:10:18.858Z,63.31
2022-12-23T11:11:18.770Z,63.31
2022-12-23T11:12:18.764Z,63.31
2022-12-23T11:13:18.740Z,63.31
2022-12-23T11:14:18.767Z,63.31
2022-12-23T11:15:18.721Z,63.31
2022-12-23T11:16:18.800Z,63.31
2022-12-23T11:17:18.727Z,63.31
2022-12-23T11:18:18.734Z,63.42
2022-12-23T11:19:18.684Z,63.42
2022-12-23T11:20:18.786Z,63.42
2022-12-23T11:21:18.699Z,63.42
2022-12-23T11:22:18.682Z,63.61
2022-12-23T11:23:18.646Z,63.51
2022-12-23T11:24:18.643Z,63.61
2022-12-23T11:25:18.617Z,63.71
2022-12-23T11:26:18.656Z,63.71
2022-12-23T11:27:18.602Z,63.71
2022-12-23T11:28:18.613Z,63.71
2022-12-23T11:29:18.581Z,63.71
2022-12-23T11:30:18.581Z,63.71
2022-12-23T11:31:18.613Z,63.71
2022-12-23T11:32:18.594Z,63.61
2022-12-23T11:33:18.583Z,63.71
2022-12-23T11:34:18.532Z,63.71
2022-12-23T11:35:18.603Z,63.81
2022-12-23T11:36:18.564Z,63.71
2022-12-23T11:37:18.507Z,63.71
2022-12-23T11:38:18.515Z,63.71
2022-12-23T11:39:18.474Z,63.71
2022-12-23T11:40:18.471Z,63.71
2022-12-23T11:41:18.458Z,63.81
2022-12-23T11:42:18.502Z,63.71
2022-12-23T11:43:18.461Z,63.81
2022-12-23T11:44:18.452Z,63.81
2022-12-23T11:45:18.519Z,63.81
2022-12-23T11:46:18.491Z,63.92
2022-12-23T11:47:18.408Z,63.92
2022-12-23T11:48:18.415Z,64.01
2022-12-23T11:49:18.369Z,64.01
2022-12-23T11:50:18.585Z,64.01
2022-12-23T11:51:18.380Z,64.01
2022-12-23T11:52:18.439Z,64.12
2022-12-23T11:53:18.334Z,64.12
2022-12-23T11:54:18.333Z,64.12
2022-12-23T11:55:18.304Z,64.12
2022-12-23T11:56:18.426Z,64.12
2022-12-23T11:57:18.369Z,64.12
2022-12-23T11:58:18.347Z,64.12
2022-12-23T11:59:18.272Z,64.22
2022-12-23T12:00:18.269Z,64.12
2022-12-23T12:01:18.247Z,64.12
2022-12-23T12:02:18.323Z,64.12
2022-12-23T12:03:18.351Z,64.12
2022-12-23T12:04:18.238Z,64.18
2022-12-23T12:05:18.195Z,64.09
2022-12-23T12:06:18.202Z,64.12
2022-12-23T12:07:18.179Z,64.12
2022-12-23T12:08:18.194Z,64.18
2022-12-23T12:09:18.198Z,64.22
2022-12-23T12:10:18.184Z,64.28
2022-12-23T12:11:18.210Z,64.28
2022-12-23T12:12:18.136Z,64.31
2022-12-23T12:13:18.113Z,64.31
2022-12-23T12:14:18.134Z,64.39
2022-12-23T12:15:18.112Z,64.48
2022-12-23T12:16:18.147Z,64.48
2022-12-23T12:17:18.110Z,64.48
2022-12-23T12:18:18.105Z,64.59
2022-12-23T12:19:18.048Z,64.59
2022-12-23T12:20:18.063Z,64.39
2022-12-23T12:21:18.057Z,63.89
2022-12-23T12:22:18.030Z,63.78
2022-12-23T12:23:18.006Z,63.89
2022-12-23T12:24:19.547Z,64.18
2022-12-23T12:25:18.021Z,64.28
2022-12-23T12:26:17.994Z,64.39
2022-12-23T12:27:17.992Z,64.39
2022-12-23T12:28:17.978Z,64.39
2022-12-23T12:29:17.967Z,64.39
2022-12-23T12:30:17.959Z,64.39
2022-12-23T12:31:18.020Z,64.39
2022-12-23T12:32:17.937Z,64.39
2022-12-23T12:33:17.902Z,64.39
2022-12-23T12:34:17.930Z,64.39
2022-12-23T12:35:17.882Z,64.39
2022-12-23T12:36:17.940Z,64.28
2022-12-23T12:37:17.862Z,64.28
2022-12-23T12:38:17.872Z,64.28
2022-12-23T12:39:17.902Z,64.28
2022-12-23T12:40:17.905Z,64.31
2022-12-23T12:41:17.893Z,64.28
2022-12-23T12:42:17.820Z,64.28
2022-12-23T12:43:17.798Z,64.28
2022-12-23T12:44:17.800Z,64.31
2022-12-23T12:45:17.791Z,64.31
2022-12-23T12:46:17.908Z,64.28
2022-12-23T12:47:44.635Z,64.28
2022-12-23T12:48:18.867Z,64.31
2022-12-23T12:49:17.735Z,64.31
2022-12-23T12:50:17.733Z,64.28
2022-12-23T12:51:17.752Z,64.28
2022-12-23T12:52:17.719Z,64.31
2022-12-23T12:53:17.766Z,64.31
2022-12-23T12:54:17.753Z,64.31